Bookmark and Share
Track history (hours):
 

Drifting buoy 46770

Last reported at 2013-Dec-15 17:40 UTC. Time now 2014-Apr-24 11:24 UTC.
Position N 52°03' E 178°09'.
Warning: this ship's position is months out of date.

Barometer 1022.9 mb
Water temperature 4.4 ° C

NotesDate/timePositionNaut miles runAvg speedWind from/ knotsBaromVisibWave heightAir tempDewpointWater temp
2013-Dec-15 17:40N 52°03' E 178°09'0 0.2 1022.9 4.4
2013-Dec-15 16:50N 52°03' E 178°09'0 0.1 1022.9 4.4
2013-Dec-15 13:40N 52°03' E 178°09'0 0.2 1023.5 4.4
2013-Dec-15 12:40N 52°02' E 178°09'0 0.0 1023.5 4.4
2013-Dec-15 09:40N 52°02' E 178°09'0 0.3 1023.6 4.4
2013-Dec-15 08:40N 52°03' E 178°09'1 0.5 1023.7 4.4
2013-Dec-15 06:50N 52°02' E 178°11'1 0.5 1023.5 4.4
2013-Dec-15 05:40N 52°03' E 178°10'0 0.4 1022.9 4.4
2013-Dec-15 04:50N 52°03' E 178°10'0 0.0 1022.7 4.4
2013-Dec-15 03:50N 52°03' E 178°10'0 0.3 1022.6 4.4
2013-Dec-15 02:40N 52°03' E 178°10'0 0.3 1022.5 4.4
2013-Dec-15 01:40N 52°03' E 178°10'0 0.3 1022.6 4.4
2013-Dec-15 00:40N 52°03' E 178°10'0 0.4 1023.0 4.4
2013-Dec-14 23:40N 52°02' E 178°10'0 0.1 1023.3 4.4
2013-Dec-14 22:40N 52°02' E 178°10'0 0.3 1023.7 4.4
2013-Dec-14 21:40N 52°03' E 178°10'0 0.2 1023.4 4.4
2013-Dec-14 19:40N 52°02' E 178°10'0 0.0 1022.8 4.4
2013-Dec-14 18:50N 52°02' E 178°10'0 0.1 1022.7 4.4
2013-Dec-14 16:40N 52°03' E 178°10'0 0.1 1022.4 4.4
2013-Dec-14 15:40N 52°02' E 178°10'0 0.2 1022.4 4.4
2013-Dec-14 14:40N 52°03' E 178°10'0 0.1 1022.7 4.4
2013-Dec-14 13:40N 52°03' E 178°10'1 0.7 1022.7 4.4
2013-Dec-14 12:50N 52°02' E 178°10'1 0.2 1022.8 4.4
2013-Dec-14 09:40N 52°03' E 178°10'0 0.2 1022.5 4.4
2013-Dec-14 08:50N 52°03' E 178°09'0 0.0 1022.3 4.4
2013-Dec-14 07:40N 52°03' E 178°09'1 0.6 1022.1 4.4
2013-Dec-14 06:40N 52°03' E 178°10'2 0.4 1021.8 4.5
2013-Dec-14 02:40N 52°04' E 178°08'0 0.0 1019.9 4.4
2013-Dec-14 01:40N 52°04' E 178°08'1 0.5 1019.7 4.5
2013-Dec-13 23:40N 52°03' E 178°06'1 0.9 1019.8 4.4
2013-Dec-13 22:50N 52°03' E 178°07'0 0.1 1020.0 4.4
2013-Dec-13 21:40N 52°03' E 178°07'0 0.0 1019.9 4.4
2013-Dec-13 19:50N 52°03' E 178°07'1 0.5 1018.9 4.5
2013-Dec-13 17:40N 52°04' E 178°08'0 0.1 1018.2 4.5
2013-Dec-13 16:40N 52°04' E 178°08'1 0.5 1018.0 4.5
2013-Dec-13 14:40N 52°05' E 178°08'1 1.2 1017.7 4.5
2013-Dec-13 13:40N 52°04' E 178°06'0 0.0 1017.5 4.5
2013-Dec-13 12:50N 52°04' E 178°06'0 0.1 1017.5 4.5
2013-Dec-13 11:40N 52°04' E 178°06'1 0.2 1017.3 4.5
2013-Dec-13 07:40N 52°05' E 178°05'0 0.2 1016.6 4.5
2013-Dec-13 06:50N 52°05' E 178°05'1 0.5 1016.5 4.5
2013-Dec-13 04:50N 52°05' E 178°07'1 0.7 1015.8 4.5
2013-Dec-13 03:40N 52°05' E 178°07'1 0.4 1015.4 4.5
2013-Dec-13 01:40N 52°06' E 178°07'1 1.1 1015.2 4.5
2013-Dec-13 00:50N 52°07' E 178°08'0 0.2 1015.4 4.5
2013-Dec-12 23:40N 52°07' E 178°08'1 0.5 1015.6 4.5
2013-Dec-12 20:50N 52°08' E 178°09'1 0.3 1016.1 4.6
2013-Dec-12 18:40N 52°08' E 178°11'0 0.1 1016.0 4.6
2013-Dec-12 17:40N 52°08' E 178°10'1 0.7 1015.9 4.6
2013-Dec-12 16:40N 52°08' E 178°12'1 0.5 1016.0 4.6
2013-Dec-12 14:40N 52°09' E 178°13'0 0.2 1015.8 4.7
2013-Dec-12 13:40N 52°08' E 178°13'0 0.1 1015.7 4.7
2013-Dec-12 10:40N 52°09' E 178°13'0 0.0 1016.6 4.7
2013-Dec-12 09:40N 52°09' E 178°13'0 0.0 1016.4 4.7
2013-Dec-12 08:50N 52°09' E 178°13'0 0.1 1016.4 4.7
2013-Dec-12 04:40N 52°09' E 178°13'0 0.0 1016.0 4.7
2013-Dec-12 03:40N 52°09' E 178°13'0 0.2 1015.6 4.6
2013-Dec-12 01:40N 52°09' E 178°13'1 0.6 1015.1 4.7
2013-Dec-12 00:40N 52°09' E 178°12'0 0.2 1015.1 4.7
2013-Dec-11 22:50N 52°09' E 178°11'0 0.2 1015.3 4.7
2013-Dec-11 20:40N 52°10' E 178°11'0 0.1 1014.3 4.7
2013-Dec-11 17:40N 52°10' E 178°11'0 0.4 1014.1 4.7
2013-Dec-11 16:40N 52°10' E 178°10'1 0.6 1014.4 4.7
2013-Dec-11 15:40N 52°11' E 178°09'0 0.0 1014.5 4.7
2013-Dec-11 14:50N 52°11' E 178°09'1 0.4 1015.0 4.7
2013-Dec-11 11:50N 52°11' E 178°08'1 0.2 1016.7 4.7
2013-Dec-11 08:50N 52°11' E 178°06'1 1.0 1017.2 4.7
2013-Dec-11 07:40N 52°12' E 178°07'1 1.1 1017.0 4.7
2013-Dec-11 06:40N 52°13' E 178°06'1 1.1 1017.3 4.7
2013-Dec-11 05:40N 52°14' E 178°04'1 0.3 1017.4 4.7
2013-Dec-11 03:50N 52°14' E 178°04'1 0.2 1017.4 4.7
2013-Dec-11 01:40N 52°15' E 178°03'0 0.2 1017.3 4.7
2013-Dec-11 00:40N 52°15' E 178°03'1 0.4 1017.6 4.7
2013-Dec-10 22:50N 52°15' E 178°02'2 0.4 1018.2 4.7
2013-Dec-10 18:40N 52°17' E 178°02'1 0.6 1017.1 4.8
2013-Dec-10 17:40N 52°18' E 178°02'1 0.3 1016.4 4.8
2013-Dec-10 14:50N 52°18' E 178°01'0 0.1 1014.7 4.8
2013-Dec-10 13:40N 52°18' E 178°01'1 1.6 1014.2 4.8
2013-Dec-10 12:50N 52°19' E 177°60'0 0.0 1013.9 4.8
2013-Dec-10 11:40N 52°19' E 177°60'1 0.6 1013.3 4.8
2013-Dec-10 10:50N 52°20' E 178°00'0 0.2 1012.7 4.8
2013-Dec-10 08:40N 52°20' E 177°60'0 0.4 1012.0 4.8
2013-Dec-10 07:40N 52°20' E 177°59'1 1.0 1011.6 4.8
2013-Dec-10 06:50N 52°21' E 177°58'0 0.4 1010.8 4.8
2013-Dec-10 05:40N 52°21' E 177°58'0 0.0 1010.4 4.8
2013-Dec-10 04:40N 52°21' E 177°58'1 0.8 1009.9 4.8
2013-Dec-10 03:40N 52°21' E 177°56'0 0.1 1009.0 4.8
2013-Dec-10 02:40N 52°21' E 177°56'1 0.3 1008.5 4.8
2013-Dec-09 22:40N 52°20' E 177°55'1 0.3 1009.6 4.8
2013-Dec-09 19:40N 52°19' E 177°54'0 0.1 1010.5 4.8
2013-Dec-09 15:40N 52°19' E 177°54'0 0.2 1011.6 4.8
2013-Dec-09 14:50N 52°19' E 177°54'0 0.1 1012.1 4.8
2013-Dec-09 09:40N 52°19' E 177°54'1 0.7 1013.7 4.8
2013-Dec-09 08:50N 52°19' E 177°55'2 0.5 1013.9 4.8
2013-Dec-09 05:40N 52°20' E 177°52'0 0.4 1014.5 4.8
2013-Dec-09 04:40N 52°20' E 177°52'1 0.4 1014.5 4.8
2013-Dec-09 02:50N 52°19' E 177°52'0 0.4 1014.5 4.8
2013-Dec-09 01:40N 52°19' E 177°51'0 0.2 1014.9 4.8
2013-Dec-09 00:50N 52°19' E 177°51'1 0.6 1015.4 4.8
2013-Dec-08 23:40N 52°19' E 177°52'1 0.3 1016.0 4.8
2013-Dec-08 21:40N 52°19' E 177°52'0 0.1 1017.2 4.8
2013-Dec-08 19:40N 52°19' E 177°52'0 0.4 1017.4 4.8
2013-Dec-08 18:50N 52°19' E 177°52'1 0.2 1017.7 4.8
2013-Dec-08 16:40N 52°20' E 177°51'0 0.4 1018.1 4.8
2013-Dec-08 15:40N 52°19' E 177°51'1 0.3 1018.9 4.8
2013-Dec-08 12:40N 52°19' E 177°51'0 0.2 1020.3 4.8
2013-Dec-08 10:50N 52°19' E 177°52'1 0.3 1020.8 4.8
2013-Dec-08 07:40N 52°20' E 177°52'0 0.3 1021.4 4.8
2013-Dec-08 06:50N 52°20' E 177°52'1 0.5 1022.0 4.8
2013-Dec-08 05:40N 52°20' E 177°52'1 0.8 1022.5 4.8
2013-Dec-08 04:50N 52°20' E 177°50'0 0.2 1022.6 4.8
2013-Dec-08 02:50N 52°20' E 177°50'1 0.3 1022.4 4.8
2013-Dec-07 23:40N 52°20' E 177°48'1 0.6 1023.0 4.8
2013-Dec-07 22:40N 52°19' E 177°48'1 0.5 1023.1 4.8
2013-Dec-07 21:40N 52°19' E 177°49'0 0.1 1023.2 4.8
2013-Dec-07 20:50N 52°19' E 177°49'0 0.2 1023.3 4.8
2013-Dec-07 18:50N 52°19' E 177°49'0 0.1 1023.2 4.8
2013-Dec-07 16:40N 52°19' E 177°49'1 0.2 1023.5 4.8
2013-Dec-07 13:40N 52°20' E 177°50'0 0.4 1023.6 4.8
2013-Dec-07 12:40N 52°19' E 177°50'0 0.2 1023.8 4.8
2013-Dec-07 09:40N 52°19' E 177°50'0 0.1 1023.7 4.8
2013-Dec-07 08:50N 52°19' E 177°50'1 0.2 1024.1 4.8
2013-Dec-07 02:40N 52°20' E 177°50'0 0.5 1023.0 4.8
2013-Dec-07 01:40N 52°20' E 177°49'1 0.4 1022.9 4.8
2013-Dec-06 23:40N 52°20' E 177°48'0 0.1 1022.8 4.8
2013-Dec-06 20:40N 52°20' E 177°48'0 0.0 1022.4 4.7
2013-Dec-06 19:40N 52°20' E 177°48'0 0.0 1021.7 4.7
2013-Dec-06 18:50N 52°20' E 177°48'1 0.1 1021.4 4.7
2013-Dec-06 09:40N 52°19' E 177°48'1 0.4 1019.0 4.7
2013-Dec-06 06:40N 52°20' E 177°48'1 0.7 1017.5 4.7
2013-Dec-06 05:40N 52°20' E 177°47'2 0.3 1017.0 4.7
2013-Dec-05 23:40N 52°21' E 177°45'1 0.8 1013.3 4.7
2013-Dec-05 22:40N 52°21' E 177°44'0 0.1 1013.0 4.7
2013-Dec-05 18:50N 52°21' E 177°44'0 0.1 1010.2 4.8
2013-Dec-05 17:40N 52°21' E 177°44'   1009.7 4.8

Dump ship's entire track history

sailing weather and tide predictions

Buoy 46770